createdAt,value
2022-09-12T00:01:28.537Z,83.75
2022-09-12T00:03:59.145Z,83.48
2022-09-12T00:06:31.453Z,83.50
2022-09-12T00:09:08.313Z,83.40
2022-09-12T00:11:37.965Z,83.41
2022-09-12T00:14:08.049Z,83.53
2022-09-12T00:16:37.953Z,83.73
2022-09-12T00:19:07.873Z,83.49
2022-09-12T00:21:38.610Z,83.48
2022-09-12T00:24:07.746Z,83.47
2022-09-12T00:26:36.673Z,83.46
2022-09-12T00:29:04.753Z,83.59
2022-09-12T00:31:32.870Z,83.78
2022-09-12T00:34:01.857Z,83.62
2022-09-12T00:36:30.730Z,83.77
2022-09-12T00:38:59.174Z,83.94
2022-09-12T00:41:33.888Z,83.62
2022-09-12T00:44:12.411Z,83.73
2022-09-12T00:47:05.238Z,83.94
2022-09-12T00:49:59.471Z,84.17
2022-09-12T00:52:34.590Z,84.04
2022-09-12T00:55:26.449Z,84.44
2022-09-12T00:57:56.831Z,84.49
2022-09-12T01:00:27.638Z,84.20
2022-09-12T01:03:15.939Z,84.02
2022-09-12T01:05:59.992Z,84.39
2022-09-12T01:08:29.134Z,84.35
2022-09-12T01:10:57.770Z,84.40
2022-09-12T01:13:26.544Z,84.27
2022-09-12T01:15:55.439Z,84.35
2022-09-12T01:18:40.722Z,84.37
2022-09-12T01:21:26.313Z,84.46
2022-09-12T01:24:09.277Z,84.54
2022-09-12T01:27:19.137Z,84.57
2022-09-12T01:30:12.323Z,84.88
2022-09-12T01:32:40.374Z,84.71
2022-09-12T01:35:35.345Z,84.83
2022-09-12T01:38:40.018Z,84.77
2022-09-12T01:41:17.054Z,84.83
2022-09-12T01:44:09.793Z,84.96
2022-09-12T01:46:43.754Z,84.84
2022-09-12T01:49:18.069Z,84.85
2022-09-12T01:52:12.949Z,84.93
2022-09-12T01:54:52.198Z,84.90
2022-09-12T01:57:48.603Z,84.82
2022-09-12T02:00:20.310Z,84.91
2022-09-12T02:03:20.829Z,84.89
2022-09-12T02:05:58.364Z,84.82
2022-09-12T02:08:32.292Z,84.85
2022-09-12T02:11:07.109Z,84.79
2022-09-12T02:13:39.665Z,85.04
2022-09-12T02:16:18.173Z,84.93
2022-09-12T02:19:00.609Z,85.02
2022-09-12T02:21:33.706Z,85.06
2022-09-12T02:24:05.956Z,85.11
2022-09-12T02:26:42.383Z,85.11
2022-09-12T02:29:10.731Z,85.08
2022-09-12T02:31:47.693Z,85.23
2022-09-12T02:34:29.491Z,85.38
2022-09-12T02:37:16.397Z,85.50
2022-09-12T02:39:45.511Z,85.63
2022-09-12T02:42:14.127Z,85.58
2022-09-12T02:44:42.834Z,85.62
2022-09-12T02:47:22.110Z,85.61
2022-09-12T02:49:50.434Z,85.79
2022-09-12T02:52:18.644Z,85.79
2022-09-12T02:54:47.750Z,85.68
2022-09-12T02:57:22.364Z,85.69
2022-09-12T02:59:55.911Z,85.67
2022-09-12T03:02:23.937Z,85.71
2022-09-12T03:05:19.083Z,85.82
2022-09-12T03:08:08.584Z,85.92
2022-09-12T03:10:39.524Z,85.88
2022-09-12T03:13:23.025Z,85.83
2022-09-12T03:15:57.114Z,85.82
2022-09-12T03:18:43.865Z,85.80
2022-09-12T03:21:21.278Z,85.80
2022-09-12T03:24:01.616Z,85.90
2022-09-12T03:26:38.408Z,85.66
2022-09-12T03:29:08.686Z,85.49
2022-09-12T03:31:37.109Z,85.39
2022-09-12T03:34:06.135Z,85.33
2022-09-12T03:36:34.263Z,85.37
2022-09-12T03:39:02.277Z,85.59
2022-09-12T03:41:30.184Z,85.49
2022-09-12T03:43:58.138Z,85.79
2022-09-12T03:46:26.118Z,85.70
2022-09-12T03:48:54.098Z,85.76
2022-09-12T03:51:22.451Z,85.80
2022-09-12T03:53:50.509Z,85.89
2022-09-12T03:56:19.664Z,86.03
2022-09-12T03:58:48.119Z,86.10
2022-09-12T04:01:19.137Z,86.32
2022-09-12T04:03:49.876Z,86.56
2022-09-12T04:06:21.189Z,86.91
2022-09-12T04:08:51.987Z,87.47
2022-09-12T04:11:21.640Z,87.54
2022-09-12T04:13:50.390Z,87.54
2022-09-12T04:16:19.854Z,87.53
2022-09-12T04:18:47.947Z,87.76
2022-09-12T04:21:19.909Z,87.98
2022-09-12T04:23:48.641Z,88.10
2022-09-12T04:26:19.114Z,88.18
2022-09-12T04:28:48.129Z,88.22
2022-09-12T04:31:20.946Z,88.37
2022-09-12T04:34:01.090Z,88.49
2022-09-12T04:36:30.077Z,88.66
2022-09-12T04:38:58.735Z,88.63
2022-09-12T04:41:31.252Z,88.76
2022-09-12T04:44:02.525Z,88.71
2022-09-12T04:46:35.377Z,88.82
2022-09-12T04:49:04.044Z,88.86
2022-09-12T04:51:36.347Z,89.08
2022-09-12T04:54:22.689Z,89.25
2022-09-12T04:56:52.774Z,89.38
2022-09-12T04:59:22.718Z,89.51
2022-09-12T05:01:50.836Z,89.57
2022-09-12T05:04:19.788Z,89.84
2022-09-12T05:06:47.763Z,89.99
2022-09-12T05:09:16.785Z,90.18
2022-09-12T05:14:34.654Z,90.55
2022-09-12T05:17:06.191Z,90.63
2022-09-12T05:19:34.396Z,90.82
2022-09-12T05:22:02.755Z,90.93
2022-09-12T05:24:30.736Z,91.09
2022-09-12T05:26:59.327Z,91.25
2022-09-12T05:29:27.375Z,91.35
2022-09-12T05:31:55.425Z,91.46
2022-09-12T05:34:23.694Z,91.49
2022-09-12T05:36:51.687Z,91.52
2022-09-12T05:39:19.724Z,91.49
2022-09-12T05:41:47.657Z,91.43
2022-09-12T05:44:16.124Z,91.57
2022-09-12T05:46:48.764Z,91.66
2022-09-12T05:49:16.930Z,91.81
2022-09-12T05:51:46.133Z,91.93
2022-09-12T05:54:20.116Z,91.97
2022-09-12T05:56:49.564Z,92.02
2022-09-12T05:59:20.768Z,92.05
2022-09-12T06:01:49.388Z,92.03
2022-09-12T06:04:18.427Z,92.04
2022-09-12T06:06:46.778Z,92.08
2022-09-12T06:09:17.150Z,92.03
2022-09-12T06:11:46.635Z,91.99
2022-09-12T06:14:17.918Z,91.86
2022-09-12T06:16:47.546Z,92.00
2022-09-12T06:19:21.825Z,92.04
2022-09-12T06:21:53.611Z,92.08
2022-09-12T06:24:22.118Z,92.05
2022-09-12T06:26:54.944Z,91.97
2022-09-12T06:29:23.689Z,91.82
2022-09-12T06:31:51.895Z,91.89
2022-09-12T06:34:20.117Z,91.68
2022-09-12T06:36:49.345Z,91.52
2022-09-12T06:39:21.277Z,91.43
2022-09-12T06:41:50.949Z,90.95
2022-09-12T06:44:21.464Z,91.15
2022-09-12T06:46:50.430Z,91.21
2022-09-12T06:49:18.817Z,91.22
2022-09-12T06:51:46.823Z,91.24
2022-09-12T06:54:17.461Z,91.24
2022-09-12T06:56:45.558Z,91.05
2022-09-12T06:59:14.000Z,90.79
2022-09-12T07:01:42.228Z,90.67
2022-09-12T07:04:10.472Z,90.71
2022-09-12T07:06:41.066Z,90.62
2022-09-12T07:09:16.765Z,90.25
2022-09-12T07:11:46.299Z,90.13
2022-09-12T07:14:15.833Z,90.13
2022-09-12T07:16:44.539Z,89.85
2022-09-12T07:19:12.675Z,89.50
2022-09-12T07:21:41.769Z,89.35
2022-09-12T07:24:11.209Z,89.37
2022-09-12T07:26:42.607Z,89.35
2022-09-12T07:32:06.879Z,89.23
2022-09-12T07:34:35.600Z,89.16
2022-09-12T07:37:04.143Z,89.48
2022-09-12T07:39:32.558Z,89.48
2022-09-12T07:42:00.565Z,89.30
2022-09-12T07:44:30.335Z,89.34
2022-09-12T07:46:58.495Z,89.26
2022-09-12T07:49:26.621Z,89.01
2022-09-12T07:51:54.708Z,89.00
2022-09-12T07:54:23.567Z,89.15
2022-09-12T07:56:51.975Z,88.84
2022-09-12T07:59:41.384Z,88.70
2022-09-12T08:02:17.718Z,88.57
2022-09-12T08:04:54.954Z,88.43
2022-09-12T08:07:23.174Z,87.99
2022-09-12T08:09:51.708Z,87.79
2022-09-12T08:12:20.724Z,87.85
2022-09-12T08:14:48.665Z,86.78
2022-09-12T08:17:16.759Z,86.88
2022-09-12T08:19:45.183Z,86.08
2022-09-12T08:22:13.875Z,85.63
2022-09-12T08:24:42.444Z,85.94
2022-09-12T08:27:10.875Z,85.68
2022-09-12T08:29:39.285Z,85.48
2022-09-12T08:32:07.598Z,84.72
2022-09-12T08:34:38.899Z,84.97
2022-09-12T08:37:06.912Z,85.11
2022-09-12T08:39:35.119Z,85.07
2022-09-12T08:42:06.266Z,85.30
2022-09-12T08:44:47.352Z,85.39
2022-09-12T08:47:36.450Z,84.97
2022-09-12T08:50:10.536Z,84.80
2022-09-12T08:52:51.254Z,84.68
2022-09-12T08:55:33.756Z,84.85
2022-09-12T08:58:15.008Z,84.83
2022-09-12T09:01:07.493Z,84.89
2022-09-12T09:03:51.245Z,85.18
2022-09-12T09:06:36.296Z,85.10
2022-09-12T09:09:26.084Z,84.42
2022-09-12T09:12:06.987Z,84.00
2022-09-12T09:15:03.174Z,84.05
2022-09-12T09:18:21.191Z,84.18
2022-09-12T09:20:55.389Z,84.06
2022-09-12T09:23:31.165Z,83.31
2022-09-12T09:26:14.074Z,82.90
2022-09-12T09:29:18.710Z,82.44
2022-09-12T09:31:53.539Z,82.10
2022-09-12T09:34:24.464Z,82.18
2022-09-12T09:36:56.227Z,82.77
2022-09-12T09:39:39.488Z,82.81
2022-09-12T09:42:26.144Z,82.19
2022-09-12T09:44:59.154Z,81.35
2022-09-12T09:47:27.319Z,81.79
2022-09-12T09:49:55.885Z,81.35
2022-09-12T09:52:31.364Z,81.24
2022-09-12T09:55:02.967Z,80.02
2022-09-12T09:57:34.305Z,80.55
2022-09-12T10:00:32.637Z,80.48
2022-09-12T10:03:13.421Z,80.70
2022-09-12T10:06:15.634Z,79.22
2022-09-12T10:08:43.807Z,79.47
2022-09-12T10:11:17.899Z,78.99
2022-09-12T10:14:01.575Z,79.69
2022-09-12T10:16:33.404Z,80.38
2022-09-12T10:19:04.121Z,79.84
2022-09-12T10:21:51.819Z,79.76
2022-09-12T10:24:30.935Z,80.15
2022-09-12T10:27:07.368Z,79.75
2022-09-12T10:29:49.927Z,79.98
2022-09-12T10:32:30.371Z,79.91
2022-09-12T10:35:03.197Z,80.68
2022-09-12T10:37:39.564Z,79.11
2022-09-12T10:40:21.622Z,78.82
2022-09-12T10:42:52.924Z,78.67
2022-09-12T10:45:25.684Z,79.01
2022-09-12T10:47:57.082Z,78.79
2022-09-12T10:50:42.190Z,78.68
2022-09-12T10:53:34.573Z,77.28
2022-09-12T10:56:03.326Z,77.01
2022-09-12T10:59:07.615Z,76.61
2022-09-12T11:01:41.727Z,77.11
2022-09-12T11:04:37.898Z,77.47
2022-09-12T11:07:21.677Z,77.90
2022-09-12T11:10:01.961Z,78.50
2022-09-12T11:12:39.809Z,77.77
2022-09-12T11:15:38.255Z,77.80
2022-09-12T11:18:18.703Z,78.04
2022-09-12T11:21:02.644Z,78.05
2022-09-12T11:23:37.729Z,78.55
2022-09-12T11:26:21.202Z,78.84
2022-09-12T11:29:18.013Z,78.33
2022-09-12T11:32:22.764Z,77.75
2022-09-12T11:35:08.157Z,77.38
2022-09-12T11:38:00.549Z,77.83
2022-09-12T11:40:40.978Z,78.54
2022-09-12T11:43:46.114Z,79.10
2022-09-12T11:46:23.932Z,79.12
2022-09-12T11:49:04.233Z,79.13
2022-09-12T11:51:49.497Z,79.17
2022-09-12T11:54:59.544Z,79.17
2022-09-12T11:57:50.647Z,79.50
2022-09-12T12:00:23.335Z,79.06
2022-09-12T12:03:06.872Z,79.32
2022-09-12T12:05:53.975Z,79.28
2022-09-12T12:08:24.194Z,79.41
2022-09-12T12:11:04.644Z,78.88
2022-09-12T12:13:34.848Z,78.19
2022-09-12T12:16:23.164Z,77.73
2022-09-12T12:19:02.129Z,77.71
2022-09-12T12:21:44.310Z,78.34
2022-09-12T12:24:15.635Z,78.63
2022-09-12T12:26:58.754Z,79.22
2022-09-12T12:29:43.407Z,79.43
2022-09-12T12:32:13.142Z,79.69
2022-09-12T12:34:43.427Z,79.46
2022-09-12T12:37:21.745Z,79.32
2022-09-12T12:40:01.499Z,79.02
2022-09-12T12:42:36.657Z,78.63
2022-09-12T12:45:27.885Z,78.25
2022-09-12T12:48:06.237Z,77.86
2022-09-12T12:50:36.333Z,77.91
2022-09-12T12:53:20.538Z,78.10
2022-09-12T12:55:54.355Z,78.04
2022-09-12T12:58:39.834Z,77.87
2022-09-12T13:01:23.163Z,77.90
2022-09-12T13:04:04.744Z,77.76
2022-09-12T13:06:42.056Z,77.04
2022-09-12T13:09:38.209Z,76.81
2022-09-12T13:12:08.974Z,76.80
2022-09-12T13:14:59.724Z,77.26
2022-09-12T13:17:47.537Z,76.99
2022-09-12T13:20:28.664Z,76.75
2022-09-12T13:22:58.447Z,76.09
2022-09-12T13:25:31.393Z,75.86
2022-09-12T13:28:11.593Z,75.70
2022-09-12T13:30:43.749Z,75.42
2022-09-12T13:33:30.306Z,75.60
2022-09-12T13:36:13.928Z,75.15
2022-09-12T13:38:51.673Z,74.92
2022-09-12T13:41:39.596Z,74.38
2022-09-12T13:44:22.327Z,73.41
2022-09-12T13:46:52.765Z,72.95
2022-09-12T13:49:38.644Z,72.93
2022-09-12T13:52:15.125Z,72.80
2022-09-12T13:54:45.851Z,73.29
2022-09-12T13:57:32.645Z,72.79
2022-09-12T14:00:05.095Z,72.19
2022-09-12T14:02:36.740Z,72.91
2022-09-12T14:05:21.704Z,73.15
2022-09-12T14:08:01.624Z,74.03
2022-09-12T14:10:35.159Z,74.74
2022-09-12T14:13:12.239Z,74.99
2022-09-12T14:15:46.431Z,74.94
2022-09-12T14:18:42.291Z,74.91
2022-09-12T14:21:21.835Z,74.60
2022-09-12T14:23:50.149Z,74.62
2022-09-12T14:26:18.724Z,74.88
2022-09-12T14:28:48.283Z,75.00
2022-09-12T14:31:28.692Z,75.04
2022-09-12T14:34:15.634Z,75.31
2022-09-12T14:36:55.359Z,75.40
2022-09-12T14:39:24.042Z,75.63
2022-09-12T14:42:02.199Z,76.08
2022-09-12T14:44:32.308Z,76.43
2022-09-12T14:47:22.672Z,76.62
2022-09-12T14:49:52.034Z,76.85
2022-09-12T14:52:33.590Z,76.84
2022-09-12T14:55:03.876Z,77.10
2022-09-12T14:57:36.956Z,77.35
2022-09-12T15:00:14.140Z,77.39
2022-09-12T15:02:44.874Z,77.46
2022-09-12T15:05:13.060Z,77.60
2022-09-12T15:07:44.056Z,77.90
2022-09-12T15:10:31.859Z,78.15
2022-09-12T15:13:05.633Z,78.32
2022-09-12T15:15:34.210Z,78.43
2022-09-12T15:18:06.396Z,78.65
2022-09-12T15:20:40.716Z,78.83
2022-09-12T15:23:22.725Z,79.08
2022-09-12T15:25:51.124Z,79.42
2022-09-12T15:28:22.831Z,79.64
2022-09-12T15:30:54.047Z,79.92
2022-09-12T15:33:24.823Z,80.09
2022-09-12T15:35:53.859Z,80.24
2022-09-12T15:38:26.360Z,80.39
2022-09-12T15:40:55.945Z,80.57
2022-09-12T15:43:26.408Z,80.63
2022-09-12T15:45:54.774Z,80.72
2022-09-12T15:48:23.689Z,80.86
2022-09-12T15:50:52.843Z,81.00
2022-09-12T15:53:20.704Z,81.04
2022-09-12T15:55:48.728Z,81.11
2022-09-12T15:58:17.300Z,81.19
2022-09-12T16:00:45.474Z,81.28
2022-09-12T16:03:26.848Z,81.35
2022-09-12T16:06:01.837Z,81.43
2022-09-12T16:08:32.447Z,81.52
2022-09-12T16:11:05.567Z,81.57
2022-09-12T16:13:34.041Z,81.67
2022-09-12T16:16:03.218Z,81.82
2022-09-12T16:18:31.335Z,81.89
2022-09-12T16:20:59.524Z,81.93
2022-09-12T16:23:27.841Z,82.08
2022-09-12T16:26:01.415Z,82.16
2022-09-12T16:28:29.618Z,82.25
2022-09-12T16:31:02.375Z,82.33
2022-09-12T16:33:31.977Z,82.41
2022-09-12T16:36:06.418Z,82.57
2022-09-12T16:38:36.253Z,82.71
2022-09-12T16:41:07.417Z,82.76
2022-09-12T16:43:35.947Z,82.89
2022-09-12T16:46:05.450Z,83.16
2022-09-12T16:48:34.251Z,83.30
2022-09-12T16:51:05.524Z,83.35
2022-09-12T16:53:37.304Z,83.42
2022-09-12T16:56:06.372Z,83.47
2022-09-12T16:58:41.608Z,83.56
2022-09-12T17:01:17.051Z,83.60
2022-09-12T17:03:45.894Z,83.72
2022-09-12T17:06:16.708Z,83.84
2022-09-12T17:08:50.514Z,83.87
2022-09-12T17:11:24.426Z,83.93
2022-09-12T17:14:05.940Z,84.04
2022-09-12T17:16:43.465Z,84.17
2022-09-12T17:19:18.865Z,84.29
2022-09-12T17:21:48.880Z,84.44
2022-09-12T17:24:18.437Z,84.61
2022-09-12T17:26:46.638Z,84.82
2022-09-12T17:29:20.650Z,85.07
2022-09-12T17:31:56.075Z,85.26
2022-09-12T17:34:42.856Z,85.44
2022-09-12T17:37:32.480Z,85.53
2022-09-12T17:40:37.023Z,85.58
2022-09-12T17:43:28.072Z,85.76
2022-09-12T17:45:58.933Z,85.82
2022-09-12T17:48:27.013Z,85.89
2022-09-12T17:50:55.275Z,86.01
2022-09-12T17:53:43.242Z,86.14
2022-09-12T17:56:34.098Z,86.23
2022-09-12T17:59:25.100Z,86.30
2022-09-12T18:02:15.956Z,86.37
2022-09-12T18:04:59.612Z,86.58
2022-09-12T18:07:30.485Z,86.65
2022-09-12T18:09:58.905Z,86.75
2022-09-12T18:12:26.891Z,86.89
2022-09-12T18:15:13.481Z,87.13
2022-09-12T18:18:04.910Z,87.32
2022-09-12T18:20:53.837Z,87.33
2022-09-12T18:23:43.495Z,87.37
2022-09-12T18:26:33.276Z,87.42
2022-09-12T18:29:22.994Z,87.51
2022-09-12T18:31:52.957Z,87.58
2022-09-12T18:34:36.171Z,87.68
2022-09-12T18:37:22.814Z,87.80
2022-09-12T18:39:53.243Z,87.89
2022-09-12T18:42:21.308Z,87.96
2022-09-12T18:44:49.456Z,87.95
2022-09-12T18:47:17.456Z,87.95
2022-09-12T18:49:45.434Z,87.97
2022-09-12T18:52:16.662Z,88.00
2022-09-12T18:54:46.075Z,87.98
2022-09-12T18:57:14.093Z,88.05
2022-09-12T18:59:42.250Z,88.16
2022-09-12T19:02:16.356Z,88.24
2022-09-12T19:04:44.593Z,88.33
2022-09-12T19:07:12.690Z,88.44
2022-09-12T19:09:40.758Z,88.51
2022-09-12T19:12:08.955Z,88.57
2022-09-12T19:14:37.238Z,88.62
2022-09-12T19:17:24.209Z,88.72
2022-09-12T19:20:13.994Z,88.82
2022-09-12T19:23:03.508Z,88.93
2022-09-12T19:26:01.622Z,88.93
2022-09-12T19:28:51.195Z,89.00
2022-09-12T19:31:35.314Z,89.09
2022-09-12T19:34:22.077Z,89.14
2022-09-12T19:37:11.548Z,89.26
2022-09-12T19:40:01.363Z,89.26
2022-09-12T19:42:51.010Z,89.32
2022-09-12T19:45:46.925Z,89.34
2022-09-12T19:48:36.943Z,89.29
2022-09-12T19:51:26.670Z,89.29
2022-09-12T19:54:16.084Z,89.39
2022-09-12T19:57:05.654Z,89.42
2022-09-12T19:59:55.849Z,89.48
2022-09-12T20:02:50.635Z,89.48
2022-09-12T20:05:42.631Z,89.57
2022-09-12T20:08:44.244Z,89.58
2022-09-12T20:11:34.266Z,89.72
2022-09-12T20:14:23.807Z,89.81
2022-09-12T20:17:13.350Z,89.94
2022-09-12T20:20:03.270Z,89.96
2022-09-12T20:22:53.680Z,90.06
2022-09-12T20:25:43.104Z,90.17
2022-09-12T20:28:32.910Z,90.28
2022-09-12T20:31:22.567Z,90.33
2022-09-12T20:34:15.760Z,90.48
2022-09-12T20:37:05.295Z,90.51
2022-09-12T20:39:55.098Z,90.49
2022-09-12T20:42:44.571Z,90.63
2022-09-12T20:45:34.135Z,90.73
2022-09-12T20:48:24.715Z,90.79
2022-09-12T20:51:14.592Z,90.75
2022-09-12T20:54:06.465Z,90.83
2022-09-12T20:56:56.074Z,90.88
2022-09-12T20:59:45.582Z,90.92
2022-09-12T21:02:35.367Z,91.13
2022-09-12T21:05:25.036Z,91.17
2022-09-12T21:08:15.554Z,91.25
2022-09-12T21:11:06.452Z,91.22
2022-09-12T21:13:56.205Z,91.23
2022-09-12T21:16:48.434Z,91.25
2022-09-12T21:19:38.072Z,91.34
2022-09-12T21:22:27.709Z,91.46
2022-09-12T21:25:17.148Z,91.58
2022-09-12T21:28:06.674Z,91.61
2022-09-12T21:30:56.185Z,91.69
2022-09-12T21:33:45.968Z,91.74
2022-09-12T21:36:35.557Z,91.79
2022-09-12T21:39:25.481Z,91.86
2022-09-12T21:42:14.950Z,91.91
2022-09-12T21:45:05.469Z,92.14
2022-09-12T21:47:54.670Z,92.25
2022-09-12T21:50:50.559Z,92.16
2022-09-12T21:53:40.134Z,92.24
2022-09-12T21:56:29.634Z,92.35
2022-09-12T21:59:19.164Z,92.27
2022-09-12T22:02:11.080Z,92.21
2022-09-12T22:05:00.510Z,92.25
2022-09-12T22:07:50.016Z,92.23
2022-09-12T22:10:40.623Z,92.26
2022-09-12T22:13:32.584Z,92.26
2022-09-12T22:16:22.022Z,92.27
2022-09-12T22:19:13.330Z,92.27
2022-09-12T22:22:21.226Z,92.27
2022-09-12T22:25:11.978Z,92.24
2022-09-12T22:28:02.114Z,92.27
2022-09-12T22:30:52.919Z,92.30
2022-09-12T22:33:42.753Z,92.27
2022-09-12T22:36:34.911Z,92.21
2022-09-12T22:39:26.267Z,92.15
2022-09-12T22:42:15.715Z,92.10
2022-09-12T22:45:07.427Z,92.08
2022-09-12T22:48:00.586Z,92.11
2022-09-12T22:50:50.914Z,92.15
2022-09-12T22:53:40.532Z,92.19
2022-09-12T22:56:29.938Z,92.23
2022-09-12T22:59:19.408Z,92.25
2022-09-12T23:02:08.995Z,92.27
2022-09-12T23:04:58.575Z,92.30
2022-09-12T23:07:48.816Z,92.40
2022-09-12T23:10:38.850Z,92.37
2022-09-12T23:13:28.788Z,92.34
2022-09-12T23:16:25.165Z,92.40
2022-09-12T23:19:14.251Z,92.44
2022-09-12T23:22:04.825Z,92.52
2022-09-12T23:24:54.426Z,92.57
2022-09-12T23:27:44.693Z,92.60
2022-09-12T23:30:34.196Z,92.65
2022-09-12T23:33:23.783Z,92.69
2022-09-12T23:36:14.653Z,92.79
2022-09-12T23:39:05.305Z,92.77
2022-09-12T23:41:55.269Z,92.76
2022-09-12T23:44:44.784Z,92.72
2022-09-12T23:47:34.431Z,92.67
2022-09-12T23:50:24.068Z,92.62
2022-09-12T23:53:15.858Z,92.65
2022-09-12T23:56:05.451Z,92.73
2022-09-12T23:58:55.035Z,92.82
